Time,TemperatureF,DewpointF,PressureIn,WindDirection,WindDirectionDegrees,WindSpeedMPH,WindSpeedGustMPH,Humidity,HourlyPrecipIn,Conditions,Clouds,dailyrainin,SoftwareType,DateUTC
2013-05-08 00:01:00,66.0,49.0,-100.00,NW,315,5.0,9.0,54,-99.99,,,-99.99,,2013-05-08 07:01:00,
2013-05-08 00:10:00,64.0,49.0,-100.00,WNW,300,6.0,9.0,58,-99.99,,,-99.99,,2013-05-08 07:10:00,
2013-05-08 01:01:00,64.0,49.0,-100.00,WNW,300,6.0,9.0,58,-99.99,,,-99.99,,2013-05-08 08:01:00,
2013-05-08 02:02:00,62.0,47.0,-100.00,NW,305,5.0,10.0,57,-99.99,,,-99.99,,2013-05-08 09:02:00,
2013-05-08 02:10:00,59.0,47.0,-100.00,WNW,300,8.0,13.0,64,-99.99,,,-99.99,,2013-05-08 09:10:00,
2013-05-08 02:11:00,62.0,47.0,-100.00,NW,305,5.0,10.0,57,-99.99,,,-99.99,,2013-05-08 09:11:00,
2013-05-08 03:02:00,59.0,47.0,-100.00,WNW,300,8.0,13.0,64,-99.99,,,-99.99,,2013-05-08 10:02:00,
2013-05-08 04:02:00,57.0,46.0,-100.00,NNW,335,5.0,13.0,66,-99.99,,,-99.99,,2013-05-08 11:02:00,
2013-05-08 04:11:00,57.0,46.0,-100.00,NNW,335,5.0,13.0,66,-99.99,,,-99.99,,2013-05-08 11:11:00,
2013-05-08 05:01:00,56.0,46.0,-100.00,NW,310,8.0,13.0,69,-99.99,,,-99.99,,2013-05-08 12:01:00,
2013-05-08 05:10:00,55.0,46.0,-100.00,NW,305,6.0,13.0,71,-99.99,,,-99.99,,2013-05-08 12:10:00,
2013-05-08 06:01:00,55.0,46.0,-100.00,NW,305,6.0,13.0,71,-99.99,,,-99.99,,2013-05-08 13:01:00,
2013-05-08 07:02:00,55.0,46.0,-100.00,WNW,300,7.0,14.0,71,-99.99,,,-99.99,,2013-05-08 14:02:00,
2013-05-08 07:11:00,55.0,46.0,-100.00,WNW,300,7.0,14.0,71,-99.99,,,-99.99,,2013-05-08 14:11:00,
2013-05-08 09:03:00,62.0,50.0,-100.00,North,10,2.0,6.0,64,-99.99,,,-99.99,,2013-05-08 16:03:00,
2013-05-08 09:12:00,62.0,50.0,-100.00,North,10,2.0,6.0,64,-99.99,,,-99.99,,2013-05-08 16:12:00,
2013-05-08 09:20:00,68.0,52.0,-100.00,North,10,3.0,9.0,56,-99.99,,,-99.99,,2013-05-08 16:20:00,
2013-05-08 10:02:00,68.0,52.0,-100.00,North,10,3.0,9.0,56,-99.99,,,-99.99,,2013-05-08 17:02:00,
2013-05-08 10:10:00,75.0,53.0,-100.00,North,360,5.0,9.0,46,-99.99,,,-99.99,,2013-05-08 17:10:00,
2013-05-08 10:11:00,68.0,52.0,-100.00,North,10,3.0,9.0,56,-99.99,,,-99.99,,2013-05-08 17:11:00,
2013-05-08 11:02:00,75.0,53.0,-100.00,North,360,5.0,9.0,46,-99.99,,,-99.99,,2013-05-08 18:02:00,
2013-05-08 12:01:00,81.0,53.0,-100.00,NW,325,2.0,7.0,37,-99.99,,,-99.99,,2013-05-08 19:01:00,
2013-05-08 12:11:00,81.0,53.0,-100.00,NW,325,2.0,7.0,37,-99.99,,,-99.99,,2013-05-08 19:11:00,
2013-05-08 13:02:00,86.0,53.0,-100.00,NNE,20,2.0,3.0,32,-99.99,,,-99.99,,2013-05-08 20:02:00,
2013-05-08 13:10:00,87.0,52.0,-100.00,SSE,155,3.0,6.0,30,-99.99,,,-99.99,,2013-05-08 20:10:00,
2013-05-08 14:01:00,87.0,52.0,-100.00,SSE,155,3.0,6.0,30,-99.99,,,-99.99,,2013-05-08 21:01:00,
2013-05-08 15:02:00,88.0,53.0,-100.00,SSE,165,1.0,7.0,30,-99.99,,,-99.99,,2013-05-08 22:02:00,
2013-05-08 15:10:00,90.0,54.0,-100.00,SE,135,2.0,6.0,29,-99.99,,,-99.99,,2013-05-08 22:10:00,
2013-05-08 15:12:00,88.0,53.0,-100.00,SSE,165,1.0,7.0,30,-99.99,,,-99.99,,2013-05-08 22:12:00,
2013-05-08 16:01:00,90.0,54.0,-100.00,SE,135,2.0,6.0,29,-99.99,,,-99.99,,2013-05-08 23:01:00,
2013-05-08 17:02:00,91.0,55.0,-100.00,NE,35,1.0,6.0,29,-99.99,,,-99.99,,2013-05-09 00:02:00,
2013-05-08 18:01:00,91.0,53.0,-100.00,WNW,300,5.0,12.0,27,-99.99,,,-99.99,,2013-05-09 01:01:00,
2013-05-08 18:10:00,88.0,51.0,-100.00,North,360,3.0,14.0,28,-99.99,,,-99.99,,2013-05-09 01:10:00,
2013-05-08 19:02:00,88.0,51.0,-100.00,North,360,3.0,14.0,28,-99.99,,,-99.99,,2013-05-09 02:02:00,
2013-05-08 20:01:00,83.0,48.0,-100.00,NW,325,5.0,9.0,29,-99.99,,,-99.99,,2013-05-09 03:01:00,
2013-05-08 20:10:00,78.0,48.0,-100.00,WNW,295,8.0,14.0,34,-99.99,,,-99.99,,2013-05-09 03:10:00,
2013-05-08 20:11:00,83.0,48.0,-100.00,NW,325,5.0,9.0,29,-99.99,,,-99.99,,2013-05-09 03:11:00,
2013-05-08 21:03:00,78.0,48.0,-100.00,WNW,295,8.0,14.0,34,-99.99,,,-99.99,,2013-05-09 04:03:00,
2013-05-08 22:02:00,74.0,47.0,-100.00,WNW,295,6.0,10.0,38,-99.99,,,-99.99,,2013-05-09 05:02:00,
2013-05-08 22:12:00,74.0,47.0,-100.00,WNW,295,6.0,10.0,38,-99.99,,,-99.99,,2013-05-09 05:12:00,
2013-05-08 22:20:00,68.0,47.0,-100.00,NW,315,2.0,7.0,46,-99.99,,,-99.99,,2013-05-09 05:20:00,
2013-05-08 23:01:00,68.0,47.0,-100.00,NW,315,2.0,7.0,46,-99.99,,,-99.99,,2013-05-09 06:01:00,
2013-05-08 23:10:00,64.0,48.0,-100.00,NNW,340,3.0,7.0,55,-99.99,,,-99.99,,2013-05-09 06:10:00,
2013-05-08 23:11:00,68.0,47.0,-100.00,NW,315,2.0,7.0,46,-99.99,,,-99.99,,2013-05-09 06:11:00,